sensor_id;sensor_type;location;lat;lon;timestamp;P1;durP1;ratioP1;P2;durP2;ratioP2
64875;SDS011;51369;49.862;9.908;2022-09-30T00:02:07;9.52;;;3.47;;
64875;SDS011;51369;49.862;9.908;2022-09-30T00:04:34;4.32;;;3.05;;
64875;SDS011;51369;49.862;9.908;2022-09-30T00:06:59;5.72;;;3.30;;
64875;SDS011;51369;49.862;9.908;2022-09-30T00:09:25;4.88;;;3.70;;
64875;SDS011;51369;49.862;9.908;2022-09-30T00:11:50;8.05;;;2.83;;
64875;SDS011;51369;49.862;9.908;2022-09-30T00:14:17;8.27;;;3.65;;
64875;SDS011;51369;49.862;9.908;2022-09-30T00:16:45;3.30;;;2.63;;
64875;SDS011;51369;49.862;9.908;2022-09-30T00:19:10;6.18;;;2.83;;
64875;SDS011;51369;49.862;9.908;2022-09-30T00:21:36;4.68;;;2.88;;
64875;SDS011;51369;49.862;9.908;2022-09-30T00:24:03;5.68;;;2.95;;
64875;SDS011;51369;49.862;9.908;2022-09-30T00:26:30;4.47;;;2.65;;
64875;SDS011;51369;49.862;9.908;2022-09-30T00:28:57;6.95;;;2.83;;
64875;SDS011;51369;49.862;9.908;2022-09-30T00:31:25;5.38;;;3.13;;
64875;SDS011;51369;49.862;9.908;2022-09-30T00:33:52;4.97;;;2.80;;
64875;SDS011;51369;49.862;9.908;2022-09-30T00:39:12;3.40;;;2.50;;
64875;SDS011;51369;49.862;9.908;2022-09-30T00:41:40;4.22;;;2.50;;
64875;SDS011;51369;49.862;9.908;2022-09-30T00:55:44;4.82;;;2.70;;
64875;SDS011;51369;49.862;9.908;2022-09-30T00:58:15;4.22;;;2.58;;
64875;SDS011;51369;49.862;9.908;2022-09-30T01:00:46;8.70;;;3.10;;
64875;SDS011;51369;49.862;9.908;2022-09-30T01:03:12;4.28;;;2.75;;
64875;SDS011;51369;49.862;9.908;2022-09-30T01:05:37;9.02;;;3.35;;
64875;SDS011;51369;49.862;9.908;2022-09-30T01:08:04;12.13;;;3.05;;
64875;SDS011;51369;49.862;9.908;2022-09-30T01:10:32;3.95;;;2.97;;
64875;SDS011;51369;49.862;9.908;2022-09-30T01:12:58;9.18;;;3.45;;
64875;SDS011;51369;49.862;9.908;2022-09-30T01:15:27;3.95;;;2.58;;
64875;SDS011;51369;49.862;9.908;2022-09-30T01:18:35;5.78;;;3.00;;
64875;SDS011;51369;49.862;9.908;2022-09-30T01:21:09;5.20;;;3.10;;
64875;SDS011;51369;49.862;9.908;2022-09-30T01:32:21;5.15;;;2.72;;
64875;SDS011;51369;49.862;9.908;2022-09-30T01:34:52;4.13;;;3.03;;
64875;SDS011;51369;49.862;9.908;2022-09-30T01:37:34;5.90;;;2.63;;
64875;SDS011;51369;49.862;9.908;2022-09-30T01:40:22;6.32;;;2.92;;
64875;SDS011;51369;49.862;9.908;2022-09-30T01:45:33;10.32;;;3.13;;
64875;SDS011;51369;49.862;9.908;2022-09-30T01:48:02;4.95;;;3.08;;
64875;SDS011;51369;49.862;9.908;2022-09-30T01:50:53;8.35;;;3.20;;
64875;SDS011;51369;49.862;9.908;2022-09-30T01:53:36;5.05;;;2.78;;
64875;SDS011;51369;49.862;9.908;2022-09-30T01:58:52;7.07;;;2.97;;
64875;SDS011;51369;49.862;9.908;2022-09-30T02:01:30;6.28;;;3.60;;
64875;SDS011;51369;49.862;9.908;2022-09-30T02:04:07;4.80;;;2.40;;
64875;SDS011;51369;49.862;9.908;2022-09-30T02:06:39;3.08;;;2.60;;
64875;SDS011;51369;49.862;9.908;2022-09-30T02:09:12;9.55;;;3.05;;
64875;SDS011;51369;49.862;9.908;2022-09-30T02:11:40;4.55;;;3.17;;
64875;SDS011;51369;49.862;9.908;2022-09-30T02:14:11;7.28;;;3.00;;
64875;SDS011;51369;49.862;9.908;2022-09-30T02:16:46;4.47;;;3.03;;
64875;SDS011;51369;49.862;9.908;2022-09-30T02:19:25;5.00;;;2.63;;
64875;SDS011;51369;49.862;9.908;2022-09-30T02:22:34;5.30;;;2.70;;
64875;SDS011;51369;49.862;9.908;2022-09-30T02:25:05;3.17;;;2.63;;
64875;SDS011;51369;49.862;9.908;2022-09-30T02:27:34;7.80;;;3.15;;
64875;SDS011;51369;49.862;9.908;2022-09-30T02:30:06;7.85;;;3.50;;
64875;SDS011;51369;49.862;9.908;2022-09-30T02:32:35;6.15;;;3.92;;
64875;SDS011;51369;49.862;9.908;2022-09-30T02:35:06;7.30;;;3.20;;
64875;SDS011;51369;49.862;9.908;2022-09-30T02:37:50;3.55;;;2.88;;
64875;SDS011;51369;49.862;9.908;2022-09-30T02:42:45;4.72;;;2.90;;
64875;SDS011;51369;49.862;9.908;2022-09-30T02:45:12;8.13;;;4.18;;
64875;SDS011;51369;49.862;9.908;2022-09-30T02:50:46;4.80;;;3.90;;
64875;SDS011;51369;49.862;9.908;2022-09-30T02:55:58;3.58;;;2.85;;
64875;SDS011;51369;49.862;9.908;2022-09-30T02:58:31;4.80;;;3.88;;
64875;SDS011;51369;49.862;9.908;2022-09-30T03:01:00;5.25;;;3.90;;
64875;SDS011;51369;49.862;9.908;2022-09-30T03:03:27;7.13;;;4.18;;
64875;SDS011;51369;49.862;9.908;2022-09-30T03:05:56;8.27;;;3.60;;
64875;SDS011;51369;49.862;9.908;2022-09-30T03:08:22;7.57;;;4.05;;
64875;SDS011;51369;49.862;9.908;2022-09-30T03:10:49;8.32;;;4.63;;
64875;SDS011;51369;49.862;9.908;2022-09-30T03:24:38;35.05;;;5.68;;
64875;SDS011;51369;49.862;9.908;2022-09-30T03:30:05;10.63;;;3.97;;
64875;SDS011;51369;49.862;9.908;2022-09-30T03:35:20;6.03;;;3.90;;
64875;SDS011;51369;49.862;9.908;2022-09-30T03:41:43;5.18;;;3.78;;
64875;SDS011;51369;49.862;9.908;2022-09-30T03:44:22;8.55;;;4.18;;
64875;SDS011;51369;49.862;9.908;2022-09-30T03:46:56;5.32;;;4.22;;
64875;SDS011;51369;49.862;9.908;2022-09-30T03:49:41;11.93;;;5.25;;
64875;SDS011;51369;49.862;9.908;2022-09-30T03:52:12;9.07;;;3.92;;
64875;SDS011;51369;49.862;9.908;2022-09-30T03:54:46;8.90;;;3.83;;
64875;SDS011;51369;49.862;9.908;2022-09-30T03:57:13;5.25;;;3.88;;
64875;SDS011;51369;49.862;9.908;2022-09-30T03:59:39;6.72;;;3.97;;
64875;SDS011;51369;49.862;9.908;2022-09-30T04:02:04;12.52;;;4.03;;
64875;SDS011;51369;49.862;9.908;2022-09-30T04:04:31;12.18;;;4.05;;
64875;SDS011;51369;49.862;9.908;2022-09-30T04:06:56;7.80;;;5.60;;
64875;SDS011;51369;49.862;9.908;2022-09-30T04:09:22;6.68;;;4.88;;
64875;SDS011;51369;49.862;9.908;2022-09-30T04:11:47;6.93;;;4.63;;
64875;SDS011;51369;49.862;9.908;2022-09-30T04:14:13;10.65;;;4.40;;
64875;SDS011;51369;49.862;9.908;2022-09-30T04:16:38;5.82;;;3.80;;
64875;SDS011;51369;49.862;9.908;2022-09-30T04:19:03;12.63;;;4.78;;
64875;SDS011;51369;49.862;9.908;2022-09-30T04:21:29;6.03;;;4.93;;
64875;SDS011;51369;49.862;9.908;2022-09-30T04:23:55;12.32;;;5.38;;
64875;SDS011;51369;49.862;9.908;2022-09-30T04:26:20;5.78;;;4.38;;
64875;SDS011;51369;49.862;9.908;2022-09-30T04:28:47;6.72;;;4.50;;
64875;SDS011;51369;49.862;9.908;2022-09-30T04:31:12;9.77;;;4.95;;
64875;SDS011;51369;49.862;9.908;2022-09-30T04:33:39;9.07;;;4.68;;
64875;SDS011;51369;49.862;9.908;2022-09-30T04:36:05;6.75;;;4.90;;
64875;SDS011;51369;49.862;9.908;2022-09-30T04:38:31;11.70;;;5.10;;
64875;SDS011;51369;49.862;9.908;2022-09-30T04:41:00;9.35;;;5.60;;
64875;SDS011;51369;49.862;9.908;2022-09-30T04:43:26;8.82;;;5.57;;
64875;SDS011;51369;49.862;9.908;2022-09-30T04:45:52;10.82;;;5.82;;
64875;SDS011;51369;49.862;9.908;2022-09-30T04:48:18;9.07;;;5.03;;
64875;SDS011;51369;49.862;9.908;2022-09-30T04:50:43;7.60;;;5.35;;
64875;SDS011;51369;49.862;9.908;2022-09-30T04:53:10;8.15;;;5.50;;
64875;SDS011;51369;49.862;9.908;2022-09-30T04:55:38;8.25;;;6.07;;
64875;SDS011;51369;49.862;9.908;2022-09-30T04:58:04;18.08;;;5.97;;
64875;SDS011;51369;49.862;9.908;2022-09-30T05:00:30;17.90;;;5.97;;
64875;SDS011;51369;49.862;9.908;2022-09-30T05:02:55;11.23;;;5.53;;
64875;SDS011;51369;49.862;9.908;2022-09-30T05:05:21;8.00;;;5.50;;
64875;SDS011;51369;49.862;9.908;2022-09-30T05:07:47;11.07;;;6.28;;
64875;SDS011;51369;49.862;9.908;2022-09-30T05:10:12;9.65;;;4.53;;
64875;SDS011;51369;49.862;9.908;2022-09-30T05:12:38;7.60;;;4.65;;
64875;SDS011;51369;49.862;9.908;2022-09-30T05:15:05;8.52;;;4.78;;
64875;SDS011;51369;49.862;9.908;2022-09-30T05:17:31;12.18;;;5.55;;
64875;SDS011;51369;49.862;9.908;2022-09-30T05:19:56;10.65;;;5.57;;
64875;SDS011;51369;49.862;9.908;2022-09-30T05:22:22;9.38;;;5.60;;
64875;SDS011;51369;49.862;9.908;2022-09-30T05:24:49;7.15;;;5.20;;
64875;SDS011;51369;49.862;9.908;2022-09-30T05:27:17;9.55;;;4.72;;
64875;SDS011;51369;49.862;9.908;2022-09-30T05:29:43;9.10;;;5.20;;
64875;SDS011;51369;49.862;9.908;2022-09-30T05:32:08;11.23;;;4.95;;
64875;SDS011;51369;49.862;9.908;2022-09-30T05:34:34;6.50;;;4.80;;
64875;SDS011;51369;49.862;9.908;2022-09-30T05:37:01;6.75;;;5.18;;
64875;SDS011;51369;49.862;9.908;2022-09-30T05:39:26;7.68;;;4.40;;
64875;SDS011;51369;49.862;9.908;2022-09-30T05:41:51;9.40;;;4.55;;
64875;SDS011;51369;49.862;9.908;2022-09-30T05:44:17;8.95;;;4.30;;
64875;SDS011;51369;49.862;9.908;2022-09-30T05:46:43;7.00;;;4.32;;
64875;SDS011;51369;49.862;9.908;2022-09-30T05:49:08;6.40;;;4.55;;
64875;SDS011;51369;49.862;9.908;2022-09-30T05:51:34;13.20;;;6.93;;
64875;SDS011;51369;49.862;9.908;2022-09-30T05:54:00;19.63;;;10.45;;
64875;SDS011;51369;49.862;9.908;2022-09-30T05:56:26;20.85;;;9.32;;
64875;SDS011;51369;49.862;9.908;2022-09-30T05:58:51;17.33;;;8.15;;
64875;SDS011;51369;49.862;9.908;2022-09-30T06:01:17;14.93;;;6.20;;
64875;SDS011;51369;49.862;9.908;2022-09-30T06:03:43;11.80;;;6.07;;
64875;SDS011;51369;49.862;9.908;2022-09-30T06:06:09;9.93;;;5.60;;
64875;SDS011;51369;49.862;9.908;2022-09-30T06:08:35;9.82;;;5.65;;
64875;SDS011;51369;49.862;9.908;2022-09-30T06:11:06;6.90;;;5.35;;
64875;SDS011;51369;49.862;9.908;2022-09-30T06:13:35;8.10;;;6.13;;
64875;SDS011;51369;49.862;9.908;2022-09-30T06:16:01;12.35;;;7.03;;
64875;SDS011;51369;49.862;9.908;2022-09-30T06:18:28;12.77;;;6.90;;
64875;SDS011;51369;49.862;9.908;2022-09-30T06:20:55;11.57;;;7.18;;
64875;SDS011;51369;49.862;9.908;2022-09-30T06:23:22;10.52;;;6.85;;
64875;SDS011;51369;49.862;9.908;2022-09-30T06:25:51;10.88;;;6.07;;
64875;SDS011;51369;49.862;9.908;2022-09-30T06:28:18;18.50;;;7.70;;
64875;SDS011;51369;49.862;9.908;2022-09-30T06:30:44;18.77;;;7.82;;
64875;SDS011;51369;49.862;9.908;2022-09-30T06:33:11;19.23;;;7.28;;
64875;SDS011;51369;49.862;9.908;2022-09-30T06:35:38;15.32;;;7.32;;
64875;SDS011;51369;49.862;9.908;2022-09-30T06:38:07;20.55;;;8.63;;
64875;SDS011;51369;49.862;9.908;2022-09-30T06:40:36;20.08;;;8.30;;
64875;SDS011;51369;49.862;9.908;2022-09-30T06:43:02;12.68;;;8.10;;
64875;SDS011;51369;49.862;9.908;2022-09-30T06:45:29;17.45;;;8.80;;
64875;SDS011;51369;49.862;9.908;2022-09-30T06:48:00;22.50;;;9.60;;
64875;SDS011;51369;49.862;9.908;2022-09-30T06:50:28;26.02;;;11.43;;
64875;SDS011;51369;49.862;9.908;2022-09-30T06:52:58;36.38;;;15.43;;
64875;SDS011;51369;49.862;9.908;2022-09-30T06:55:25;34.05;;;13.43;;
64875;SDS011;51369;49.862;9.908;2022-09-30T06:57:52;26.92;;;12.88;;
64875;SDS011;51369;49.862;9.908;2022-09-30T07:00:18;27.58;;;12.20;;
64875;SDS011;51369;49.862;9.908;2022-09-30T07:02:43;33.47;;;13.43;;
64875;SDS011;51369;49.862;9.908;2022-09-30T07:05:09;34.90;;;13.50;;
64875;SDS011;51369;49.862;9.908;2022-09-30T07:07:34;29.85;;;12.90;;
64875;SDS011;51369;49.862;9.908;2022-09-30T07:10:01;30.38;;;10.88;;
64875;SDS011;51369;49.862;9.908;2022-09-30T07:12:27;21.75;;;11.00;;
64875;SDS011;51369;49.862;9.908;2022-09-30T07:14:53;23.35;;;10.23;;
64875;SDS011;51369;49.862;9.908;2022-09-30T07:17:20;25.52;;;11.40;;
64875;SDS011;51369;49.862;9.908;2022-09-30T07:19:45;20.65;;;11.25;;
64875;SDS011;51369;49.862;9.908;2022-09-30T07:22:10;17.77;;;10.10;;
64875;SDS011;51369;49.862;9.908;2022-09-30T07:25:03;25.83;;;10.60;;
64875;SDS011;51369;49.862;9.908;2022-09-30T07:27:30;35.00;;;11.80;;
64875;SDS011;51369;49.862;9.908;2022-09-30T07:29:57;25.50;;;12.23;;
64875;SDS011;51369;49.862;9.908;2022-09-30T07:32:23;28.13;;;11.52;;
64875;SDS011;51369;49.862;9.908;2022-09-30T07:34:49;27.48;;;12.40;;
64875;SDS011;51369;49.862;9.908;2022-09-30T07:37:16;25.95;;;13.23;;
64875;SDS011;51369;49.862;9.908;2022-09-30T07:39:44;21.10;;;11.73;;
64875;SDS011;51369;49.862;9.908;2022-09-30T07:42:12;23.70;;;12.57;;
64875;SDS011;51369;49.862;9.908;2022-09-30T07:44:39;25.30;;;12.73;;
64875;SDS011;51369;49.862;9.908;2022-09-30T07:47:08;22.50;;;12.60;;
64875;SDS011;51369;49.862;9.908;2022-09-30T07:49:34;28.15;;;13.25;;
64875;SDS011;51369;49.862;9.908;2022-09-30T07:52:00;20.90;;;11.95;;
64875;SDS011;51369;49.862;9.908;2022-09-30T07:54:30;24.30;;;11.77;;
64875;SDS011;51369;49.862;9.908;2022-09-30T07:56:57;30.45;;;12.40;;
64875;SDS011;51369;49.862;9.908;2022-09-30T07:59:24;22.40;;;11.85;;
64875;SDS011;51369;49.862;9.908;2022-09-30T08:01:51;33.80;;;11.82;;
64875;SDS011;51369;49.862;9.908;2022-09-30T08:04:17;28.52;;;12.77;;
64875;SDS011;51369;49.862;9.908;2022-09-30T08:06:45;23.38;;;11.98;;
64875;SDS011;51369;49.862;9.908;2022-09-30T08:09:17;19.13;;;11.43;;
64875;SDS011;51369;49.862;9.908;2022-09-30T08:11:45;25.13;;;12.20;;
64875;SDS011;51369;49.862;9.908;2022-09-30T08:14:20;22.55;;;11.88;;
64875;SDS011;51369;49.862;9.908;2022-09-30T08:16:48;19.20;;;11.70;;
64875;SDS011;51369;49.862;9.908;2022-09-30T08:19:15;24.88;;;10.95;;
64875;SDS011;51369;49.862;9.908;2022-09-30T08:21:43;22.55;;;12.80;;
64875;SDS011;51369;49.862;9.908;2022-09-30T08:24:09;20.95;;;12.00;;
64875;SDS011;51369;49.862;9.908;2022-09-30T08:26:36;19.98;;;11.68;;
64875;SDS011;51369;49.862;9.908;2022-09-30T08:29:02;25.58;;;12.45;;
64875;SDS011;51369;49.862;9.908;2022-09-30T08:31:27;23.08;;;12.32;;
64875;SDS011;51369;49.862;9.908;2022-09-30T08:33:53;20.60;;;11.88;;
64875;SDS011;51369;49.862;9.908;2022-09-30T08:36:20;22.45;;;12.02;;
64875;SDS011;51369;49.862;9.908;2022-09-30T08:38:48;20.45;;;12.32;;
64875;SDS011;51369;49.862;9.908;2022-09-30T08:46:36;15.13;;;10.15;;
64875;SDS011;51369;49.862;9.908;2022-09-30T08:51:34;15.07;;;10.23;;
64875;SDS011;51369;49.862;9.908;2022-09-30T08:54:05;18.45;;;9.60;;
64875;SDS011;51369;49.862;9.908;2022-09-30T08:56:35;17.50;;;9.23;;
64875;SDS011;51369;49.862;9.908;2022-09-30T08:59:05;14.05;;;9.35;;
64875;SDS011;51369;49.862;9.908;2022-09-30T09:01:53;13.40;;;8.87;;
64875;SDS011;51369;49.862;9.908;2022-09-30T09:04:26;16.58;;;9.70;;
64875;SDS011;51369;49.862;9.908;2022-09-30T09:06:55;12.02;;;8.35;;
64875;SDS011;51369;49.862;9.908;2022-09-30T09:12:20;10.57;;;7.47;;
64875;SDS011;51369;49.862;9.908;2022-09-30T09:20:32;16.98;;;10.95;;
64875;SDS011;51369;49.862;9.908;2022-09-30T09:23:07;16.27;;;11.40;;
64875;SDS011;51369;49.862;9.908;2022-09-30T09:25:35;16.08;;;11.30;;
64875;SDS011;51369;49.862;9.908;2022-09-30T09:28:05;16.80;;;11.23;;
64875;SDS011;51369;49.862;9.908;2022-09-30T09:30:46;15.27;;;11.63;;
64875;SDS011;51369;49.862;9.908;2022-09-30T09:33:17;18.77;;;11.23;;
64875;SDS011;51369;49.862;9.908;2022-09-30T09:38:33;18.13;;;12.10;;
64875;SDS011;51369;49.862;9.908;2022-09-30T09:46:32;17.35;;;11.80;;
64875;SDS011;51369;49.862;9.908;2022-09-30T09:51:46;20.75;;;12.13;;
64875;SDS011;51369;49.862;9.908;2022-09-30T09:54:27;17.73;;;12.75;;
64875;SDS011;51369;49.862;9.908;2022-09-30T09:56:54;18.00;;;11.80;;
64875;SDS011;51369;49.862;9.908;2022-09-30T09:59:19;17.63;;;11.70;;
64875;SDS011;51369;49.862;9.908;2022-09-30T10:01:52;19.80;;;13.20;;
64875;SDS011;51369;49.862;9.908;2022-09-30T10:07:01;18.92;;;12.88;;
64875;SDS011;51369;49.862;9.908;2022-09-30T10:09:38;18.58;;;13.10;;
64875;SDS011;51369;49.862;9.908;2022-09-30T10:14:34;16.13;;;11.93;;
64875;SDS011;51369;49.862;9.908;2022-09-30T10:17:16;19.58;;;13.23;;
64875;SDS011;51369;49.862;9.908;2022-09-30T10:19:48;20.90;;;13.25;;
64875;SDS011;51369;49.862;9.908;2022-09-30T10:22:17;16.42;;;11.90;;
64875;SDS011;51369;49.862;9.908;2022-09-30T10:24:43;19.15;;;12.70;;
64875;SDS011;51369;49.862;9.908;2022-09-30T10:27:28;16.88;;;11.80;;
64875;SDS011;51369;49.862;9.908;2022-09-30T10:29:55;17.15;;;11.18;;
64875;SDS011;51369;49.862;9.908;2022-09-30T10:32:21;13.15;;;9.98;;
64875;SDS011;51369;49.862;9.908;2022-09-30T10:34:53;14.38;;;10.15;;
64875;SDS011;51369;49.862;9.908;2022-09-30T10:37:22;13.65;;;10.35;;
64875;SDS011;51369;49.862;9.908;2022-09-30T10:40:11;13.00;;;9.65;;
64875;SDS011;51369;49.862;9.908;2022-09-30T10:42:44;10.65;;;7.75;;
64875;SDS011;51369;49.862;9.908;2022-09-30T10:45:19;8.60;;;6.85;;
64875;SDS011;51369;49.862;9.908;2022-09-30T10:47:48;9.82;;;7.20;;
64875;SDS011;51369;49.862;9.908;2022-09-30T10:50:21;11.32;;;8.63;;
64875;SDS011;51369;49.862;9.908;2022-09-30T10:57:47;9.35;;;5.63;;
64875;SDS011;51369;49.862;9.908;2022-09-30T11:00:15;7.47;;;5.28;;
64875;SDS011;51369;49.862;9.908;2022-09-30T11:07:45;5.97;;;4.72;;
64875;SDS011;51369;49.862;9.908;2022-09-30T11:12:55;5.55;;;2.80;;
64875;SDS011;51369;49.862;9.908;2022-09-30T11:15:29;5.05;;;3.05;;
64875;SDS011;51369;49.862;9.908;2022-09-30T11:18:05;5.35;;;3.60;;
64875;SDS011;51369;49.862;9.908;2022-09-30T11:20:42;8.40;;;3.78;;
64875;SDS011;51369;49.862;9.908;2022-09-30T11:23:24;6.50;;;3.83;;
64875;SDS011;51369;49.862;9.908;2022-09-30T11:26:01;7.10;;;4.45;;
64875;SDS011;51369;49.862;9.908;2022-09-30T11:31:36;8.75;;;4.85;;
64875;SDS011;51369;49.862;9.908;2022-09-30T11:36:53;5.53;;;4.35;;
64875;SDS011;51369;49.862;9.908;2022-09-30T11:42:18;5.57;;;3.50;;
64875;SDS011;51369;49.862;9.908;2022-09-30T11:45:11;5.25;;;3.33;;
64875;SDS011;51369;49.862;9.908;2022-09-30T11:50:58;6.50;;;3.55;;
64875;SDS011;51369;49.862;9.908;2022-09-30T11:56:52;3.65;;;2.95;;
64875;SDS011;51369;49.862;9.908;2022-09-30T11:59:32;7.95;;;2.35;;
64875;SDS011;51369;49.862;9.908;2022-09-30T12:02:03;5.65;;;2.90;;
64875;SDS011;51369;49.862;9.908;2022-09-30T12:05:02;3.17;;;2.63;;
64875;SDS011;51369;49.862;9.908;2022-09-30T12:08:03;5.40;;;3.20;;
64875;SDS011;51369;49.862;9.908;2022-09-30T12:10:38;8.65;;;3.08;;
64875;SDS011;51369;49.862;9.908;2022-09-30T12:13:10;3.90;;;2.55;;
64875;SDS011;51369;49.862;9.908;2022-09-30T12:15:40;3.55;;;2.47;;
64875;SDS011;51369;49.862;9.908;2022-09-30T12:18:09;4.57;;;2.67;;
64875;SDS011;51369;49.862;9.908;2022-09-30T12:20:45;5.22;;;2.40;;
64875;SDS011;51369;49.862;9.908;2022-09-30T12:23:28;4.35;;;2.22;;
64875;SDS011;51369;49.862;9.908;2022-09-30T12:26:00;4.13;;;2.72;;
64875;SDS011;51369;49.862;9.908;2022-09-30T12:32:04;6.28;;;2.38;;
64875;SDS011;51369;49.862;9.908;2022-09-30T12:48:21;4.72;;;3.13;;
64875;SDS011;51369;49.862;9.908;2022-09-30T12:50:56;5.22;;;2.88;;
64875;SDS011;51369;49.862;9.908;2022-09-30T12:53:32;5.53;;;3.13;;
64875;SDS011;51369;49.862;9.908;2022-09-30T12:56:11;4.43;;;2.35;;
64875;SDS011;51369;49.862;9.908;2022-09-30T12:58:43;4.35;;;2.90;;
64875;SDS011;51369;49.862;9.908;2022-09-30T13:01:17;6.57;;;2.95;;
64875;SDS011;51369;49.862;9.908;2022-09-30T13:06:25;4.68;;;2.58;;
64875;SDS011;51369;49.862;9.908;2022-09-30T13:11:40;4.78;;;3.17;;
64875;SDS011;51369;49.862;9.908;2022-09-30T13:19:40;6.10;;;3.70;;
64875;SDS011;51369;49.862;9.908;2022-09-30T13:32:41;4.90;;;3.15;;
64875;SDS011;51369;49.862;9.908;2022-09-30T13:40:40;6.28;;;3.60;;
64875;SDS011;51369;49.862;9.908;2022-09-30T13:46:03;7.97;;;4.25;;
64875;SDS011;51369;49.862;9.908;2022-09-30T13:48:35;9.52;;;4.28;;
64875;SDS011;51369;49.862;9.908;2022-09-30T13:51:11;4.65;;;3.67;;
64875;SDS011;51369;49.862;9.908;2022-09-30T14:01:53;7.20;;;3.47;;
64875;SDS011;51369;49.862;9.908;2022-09-30T14:16:48;5.55;;;3.50;;
64875;SDS011;51369;49.862;9.908;2022-09-30T14:21:57;7.13;;;2.72;;
64875;SDS011;51369;49.862;9.908;2022-09-30T14:24:28;8.85;;;3.30;;
64875;SDS011;51369;49.862;9.908;2022-09-30T14:35:06;5.25;;;2.20;;
64875;SDS011;51369;49.862;9.908;2022-09-30T14:37:55;6.22;;;2.20;;
64875;SDS011;51369;49.862;9.908;2022-09-30T14:40:26;4.25;;;2.50;;
64875;SDS011;51369;49.862;9.908;2022-09-30T14:42:54;9.35;;;2.20;;
64875;SDS011;51369;49.862;9.908;2022-09-30T14:45:28;7.75;;;2.35;;
64875;SDS011;51369;49.862;9.908;2022-09-30T14:47:58;2.92;;;2.00;;
64875;SDS011;51369;49.862;9.908;2022-09-30T14:50:33;4.25;;;2.30;;
64875;SDS011;51369;49.862;9.908;2022-09-30T14:55:32;2.95;;;2.13;;
64875;SDS011;51369;49.862;9.908;2022-09-30T15:00:43;3.90;;;1.75;;
64875;SDS011;51369;49.862;9.908;2022-09-30T15:03:12;2.67;;;1.42;;
64875;SDS011;51369;49.862;9.908;2022-09-30T15:05:39;2.65;;;1.90;;
64875;SDS011;51369;49.862;9.908;2022-09-30T15:08:09;4.88;;;1.67;;
64875;SDS011;51369;49.862;9.908;2022-09-30T15:10:35;4.18;;;1.98;;
64875;SDS011;51369;49.862;9.908;2022-09-30T15:13:01;3.92;;;2.10;;
64875;SDS011;51369;49.862;9.908;2022-09-30T15:18:19;2.45;;;1.88;;
64875;SDS011;51369;49.862;9.908;2022-09-30T15:21:09;6.38;;;2.10;;
64875;SDS011;51369;49.862;9.908;2022-09-30T15:23:37;7.22;;;1.80;;
64875;SDS011;51369;49.862;9.908;2022-09-30T15:26:05;3.55;;;1.85;;
64875;SDS011;51369;49.862;9.908;2022-09-30T15:28:34;2.92;;;1.52;;
64875;SDS011;51369;49.862;9.908;2022-09-30T15:31:00;3.35;;;2.00;;
64875;SDS011;51369;49.862;9.908;2022-09-30T15:33:27;3.00;;;2.13;;
64875;SDS011;51369;49.862;9.908;2022-09-30T15:36:29;3.33;;;2.03;;
64875;SDS011;51369;49.862;9.908;2022-09-30T15:38:48;3.03;;;1.98;;
64875;SDS011;51369;49.862;9.908;2022-09-30T15:41:15;3.92;;;2.13;;
64875;SDS011;51369;49.862;9.908;2022-09-30T15:43:45;3.30;;;1.90;;
64875;SDS011;51369;49.862;9.908;2022-09-30T15:48:57;2.42;;;2.05;;
64875;SDS011;51369;49.862;9.908;2022-09-30T15:53:57;3.47;;;1.75;;
64875;SDS011;51369;49.862;9.908;2022-09-30T16:01:21;2.33;;;1.50;;
64875;SDS011;51369;49.862;9.908;2022-09-30T16:09:30;4.22;;;2.05;;
64875;SDS011;51369;49.862;9.908;2022-09-30T16:12:01;6.03;;;2.38;;
64875;SDS011;51369;49.862;9.908;2022-09-30T16:14:40;4.28;;;1.83;;
64875;SDS011;51369;49.862;9.908;2022-09-30T16:17:35;3.88;;;1.73;;
64875;SDS011;51369;49.862;9.908;2022-09-30T16:20:03;4.63;;;2.10;;
64875;SDS011;51369;49.862;9.908;2022-09-30T16:27:34;2.20;;;1.92;;
64875;SDS011;51369;49.862;9.908;2022-09-30T16:30:00;3.55;;;2.05;;
64875;SDS011;51369;49.862;9.908;2022-09-30T16:32:27;6.75;;;2.55;;
64875;SDS011;51369;49.862;9.908;2022-09-30T16:34:56;4.88;;;1.90;;
64875;SDS011;51369;49.862;9.908;2022-09-30T16:37:23;4.05;;;1.92;;
64875;SDS011;51369;49.862;9.908;2022-09-30T16:39:48;4.05;;;1.90;;
64875;SDS011;51369;49.862;9.908;2022-09-30T16:42:14;5.68;;;2.13;;
64875;SDS011;51369;49.862;9.908;2022-09-30T16:44:41;3.67;;;1.77;;
64875;SDS011;51369;49.862;9.908;2022-09-30T16:47:15;5.40;;;2.17;;
64875;SDS011;51369;49.862;9.908;2022-09-30T16:49:44;8.85;;;2.88;;
64875;SDS011;51369;49.862;9.908;2022-09-30T16:52:10;4.85;;;1.83;;
64875;SDS011;51369;49.862;9.908;2022-09-30T16:54:36;3.10;;;1.95;;
64875;SDS011;51369;49.862;9.908;2022-09-30T16:57:02;4.35;;;1.60;;
64875;SDS011;51369;49.862;9.908;2022-09-30T16:59:27;4.68;;;2.00;;
64875;SDS011;51369;49.862;9.908;2022-09-30T17:01:53;4.35;;;1.67;;
64875;SDS011;51369;49.862;9.908;2022-09-30T17:04:18;4.57;;;1.88;;
64875;SDS011;51369;49.862;9.908;2022-09-30T17:06:44;3.30;;;2.13;;
64875;SDS011;51369;49.862;9.908;2022-09-30T17:09:09;3.65;;;1.90;;
64875;SDS011;51369;49.862;9.908;2022-09-30T17:11:35;6.25;;;3.05;;
64875;SDS011;51369;49.862;9.908;2022-09-30T17:14:02;4.15;;;2.55;;
64875;SDS011;51369;49.862;9.908;2022-09-30T17:16:28;5.72;;;3.95;;
64875;SDS011;51369;49.862;9.908;2022-09-30T17:18:54;8.70;;;5.43;;
64875;SDS011;51369;49.862;9.908;2022-09-30T17:21:20;12.05;;;5.05;;
64875;SDS011;51369;49.862;9.908;2022-09-30T17:23:47;10.30;;;5.63;;
64875;SDS011;51369;49.862;9.908;2022-09-30T17:26:14;9.75;;;6.45;;
64875;SDS011;51369;49.862;9.908;2022-09-30T17:28:39;12.48;;;7.63;;
64875;SDS011;51369;49.862;9.908;2022-09-30T17:31:06;14.73;;;7.70;;
64875;SDS011;51369;49.862;9.908;2022-09-30T17:33:36;17.33;;;6.68;;
64875;SDS011;51369;49.862;9.908;2022-09-30T17:36:04;14.02;;;7.38;;
64875;SDS011;51369;49.862;9.908;2022-09-30T17:38:34;15.77;;;7.78;;
64875;SDS011;51369;49.862;9.908;2022-09-30T17:41:02;17.67;;;8.98;;
64875;SDS011;51369;49.862;9.908;2022-09-30T17:43:46;19.33;;;12.98;;
64875;SDS011;51369;49.862;9.908;2022-09-30T17:46:12;25.30;;;12.55;;
64875;SDS011;51369;49.862;9.908;2022-09-30T17:48:47;16.98;;;10.25;;
64875;SDS011;51369;49.862;9.908;2022-09-30T17:51:14;18.63;;;9.63;;
64875;SDS011;51369;49.862;9.908;2022-09-30T17:53:40;15.52;;;9.35;;
64875;SDS011;51369;49.862;9.908;2022-09-30T17:56:07;12.40;;;7.47;;
64875;SDS011;51369;49.862;9.908;2022-09-30T17:58:41;14.98;;;7.80;;
64875;SDS011;51369;49.862;9.908;2022-09-30T18:01:07;14.82;;;7.40;;
64875;SDS011;51369;49.862;9.908;2022-09-30T18:03:34;13.93;;;7.38;;
64875;SDS011;51369;49.862;9.908;2022-09-30T18:06:00;14.68;;;8.48;;
64875;SDS011;51369;49.862;9.908;2022-09-30T18:08:26;13.95;;;9.30;;
64875;SDS011;51369;49.862;9.908;2022-09-30T18:10:55;15.07;;;8.98;;
64875;SDS011;51369;49.862;9.908;2022-09-30T18:13:25;14.10;;;9.10;;
64875;SDS011;51369;49.862;9.908;2022-09-30T18:15:51;23.25;;;15.27;;
64875;SDS011;51369;49.862;9.908;2022-09-30T18:18:16;15.57;;;9.85;;
64875;SDS011;51369;49.862;9.908;2022-09-30T18:20:42;20.02;;;10.07;;
64875;SDS011;51369;49.862;9.908;2022-09-30T18:23:09;14.82;;;9.85;;
64875;SDS011;51369;49.862;9.908;2022-09-30T18:25:35;23.02;;;11.50;;
64875;SDS011;51369;49.862;9.908;2022-09-30T18:28:02;18.83;;;11.43;;
64875;SDS011;51369;49.862;9.908;2022-09-30T18:30:28;15.75;;;10.80;;
64875;SDS011;51369;49.862;9.908;2022-09-30T18:32:53;22.98;;;12.88;;
64875;SDS011;51369;49.862;9.908;2022-09-30T18:35:20;16.45;;;13.50;;
64875;SDS011;51369;49.862;9.908;2022-09-30T18:37:47;33.10;;;25.15;;
64875;SDS011;51369;49.862;9.908;2022-09-30T18:40:19;43.50;;;31.98;;